sensor_id;sensor_type;location;lat;lon;timestamp;P1;durP1;ratioP1;P2;durP2;ratioP2
23390;SDS011;11868;45.606;5.302;2024-03-02T00:02:24;4.25;;;1.98;;
23390;SDS011;11868;45.606;5.302;2024-03-02T00:04:50;4.00;;;1.98;;
23390;SDS011;11868;45.606;5.302;2024-03-02T00:07:16;3.92;;;1.95;;
23390;SDS011;11868;45.606;5.302;2024-03-02T00:09:41;3.72;;;2.10;;
23390;SDS011;11868;45.606;5.302;2024-03-02T00:12:07;3.05;;;1.90;;
23390;SDS011;11868;45.606;5.302;2024-03-02T00:14:33;4.97;;;2.40;;
23390;SDS011;11868;45.606;5.302;2024-03-02T00:16:58;2.35;;;1.83;;
23390;SDS011;11868;45.606;5.302;2024-03-02T00:19:24;4.03;;;2.08;;
23390;SDS011;11868;45.606;5.302;2024-03-02T00:21:50;3.58;;;1.92;;
23390;SDS011;11868;45.606;5.302;2024-03-02T00:24:20;8.57;;;2.25;;
23390;SDS011;11868;45.606;5.302;2024-03-02T00:26:50;4.63;;;1.77;;
23390;SDS011;11868;45.606;5.302;2024-03-02T00:29:15;3.78;;;1.80;;
23390;SDS011;11868;45.606;5.302;2024-03-02T00:31:42;3.38;;;1.63;;
23390;SDS011;11868;45.606;5.302;2024-03-02T00:34:07;4.38;;;2.05;;
23390;SDS011;11868;45.606;5.302;2024-03-02T00:36:32;7.65;;;1.80;;
23390;SDS011;11868;45.606;5.302;2024-03-02T00:38:58;7.32;;;1.83;;
23390;SDS011;11868;45.606;5.302;2024-03-02T00:41:27;3.35;;;2.20;;
23390;SDS011;11868;45.606;5.302;2024-03-02T00:43:58;4.13;;;1.88;;
23390;SDS011;11868;45.606;5.302;2024-03-02T00:49:17;6.22;;;2.10;;
23390;SDS011;11868;45.606;5.302;2024-03-02T00:51:46;3.97;;;1.97;;
23390;SDS011;11868;45.606;5.302;2024-03-02T00:54:13;3.65;;;1.80;;
23390;SDS011;11868;45.606;5.302;2024-03-02T00:56:40;4.40;;;1.80;;
23390;SDS011;11868;45.606;5.302;2024-03-02T00:59:06;6.35;;;2.38;;
23390;SDS011;11868;45.606;5.302;2024-03-02T01:01:31;6.45;;;3.30;;
23390;SDS011;11868;45.606;5.302;2024-03-02T01:03:57;7.53;;;3.95;;
23390;SDS011;11868;45.606;5.302;2024-03-02T01:06:22;7.20;;;3.90;;
23390;SDS011;11868;45.606;5.302;2024-03-02T01:08:48;4.32;;;3.03;;
23390;SDS011;11868;45.606;5.302;2024-03-02T01:11:16;4.00;;;2.72;;
23390;SDS011;11868;45.606;5.302;2024-03-02T01:13:41;6.13;;;2.40;;
23390;SDS011;11868;45.606;5.302;2024-03-02T01:16:06;4.35;;;2.10;;
23390;SDS011;11868;45.606;5.302;2024-03-02T01:18:32;3.28;;;1.75;;
23390;SDS011;11868;45.606;5.302;2024-03-02T01:20:57;4.70;;;2.10;;
23390;SDS011;11868;45.606;5.302;2024-03-02T01:23:23;7.30;;;1.70;;
23390;SDS011;11868;45.606;5.302;2024-03-02T01:25:48;5.40;;;2.00;;
23390;SDS011;11868;45.606;5.302;2024-03-02T01:28:14;4.45;;;1.73;;
23390;SDS011;11868;45.606;5.302;2024-03-02T01:30:40;4.60;;;1.80;;
23390;SDS011;11868;45.606;5.302;2024-03-02T01:33:05;3.85;;;1.83;;
23390;SDS011;11868;45.606;5.302;2024-03-02T01:35:31;2.05;;;1.38;;
23390;SDS011;11868;45.606;5.302;2024-03-02T01:37:57;6.13;;;1.50;;
23390;SDS011;11868;45.606;5.302;2024-03-02T01:40:22;5.38;;;1.70;;
23390;SDS011;11868;45.606;5.302;2024-03-02T01:42:51;6.97;;;1.73;;
23390;SDS011;11868;45.606;5.302;2024-03-02T01:45:17;3.30;;;1.60;;
23390;SDS011;11868;45.606;5.302;2024-03-02T01:47:43;3.05;;;1.50;;
23390;SDS011;11868;45.606;5.302;2024-03-02T01:50:08;4.63;;;1.60;;
23390;SDS011;11868;45.606;5.302;2024-03-02T01:52:36;3.50;;;1.40;;
23390;SDS011;11868;45.606;5.302;2024-03-02T01:55:01;3.83;;;1.20;;
23390;SDS011;11868;45.606;5.302;2024-03-02T01:57:27;2.83;;;1.05;;
23390;SDS011;11868;45.606;5.302;2024-03-02T01:59:52;2.70;;;1.20;;
23390;SDS011;11868;45.606;5.302;2024-03-02T02:02:18;3.55;;;1.30;;
23390;SDS011;11868;45.606;5.302;2024-03-02T02:04:43;2.75;;;1.05;;
23390;SDS011;11868;45.606;5.302;2024-03-02T02:07:09;1.40;;;1.10;;
23390;SDS011;11868;45.606;5.302;2024-03-02T02:09:35;2.22;;;1.20;;
23390;SDS011;11868;45.606;5.302;2024-03-02T02:12:00;1.52;;;0.93;;
23390;SDS011;11868;45.606;5.302;2024-03-02T02:14:26;1.67;;;1.20;;
23390;SDS011;11868;45.606;5.302;2024-03-02T02:16:51;1.88;;;1.65;;
23390;SDS011;11868;45.606;5.302;2024-03-02T02:19:17;3.63;;;1.65;;
23390;SDS011;11868;45.606;5.302;2024-03-02T02:21:43;1.95;;;1.25;;
23390;SDS011;11868;45.606;5.302;2024-03-02T02:24:08;4.32;;;1.58;;
23390;SDS011;11868;45.606;5.302;2024-03-02T02:26:33;2.65;;;1.30;;
23390;SDS011;11868;45.606;5.302;2024-03-02T02:28:59;1.40;;;1.00;;
23390;SDS011;11868;45.606;5.302;2024-03-02T02:31:24;1.00;;;0.90;;
23390;SDS011;11868;45.606;5.302;2024-03-02T02:33:49;1.65;;;1.17;;
23390;SDS011;11868;45.606;5.302;2024-03-02T02:36:15;1.95;;;1.10;;
23390;SDS011;11868;45.606;5.302;2024-03-02T02:38:42;1.70;;;1.08;;
23390;SDS011;11868;45.606;5.302;2024-03-02T02:41:09;1.90;;;1.15;;
23390;SDS011;11868;45.606;5.302;2024-03-02T02:43:34;2.25;;;1.05;;
23390;SDS011;11868;45.606;5.302;2024-03-02T02:45:59;5.65;;;3.70;;
23390;SDS011;11868;45.606;5.302;2024-03-02T02:48:25;1.98;;;1.40;;
23390;SDS011;11868;45.606;5.302;2024-03-02T02:50:50;2.97;;;1.50;;
23390;SDS011;11868;45.606;5.302;2024-03-02T02:53:16;5.05;;;1.73;;
23390;SDS011;11868;45.606;5.302;2024-03-02T02:55:41;2.28;;;1.20;;
23390;SDS011;11868;45.606;5.302;2024-03-02T02:58:08;1.85;;;1.08;;
23390;SDS011;11868;45.606;5.302;2024-03-02T03:00:34;4.00;;;1.20;;
23390;SDS011;11868;45.606;5.302;2024-03-02T03:02:59;2.15;;;1.10;;
23390;SDS011;11868;45.606;5.302;2024-03-02T03:05:24;3.42;;;1.38;;
23390;SDS011;11868;45.606;5.302;2024-03-02T03:07:50;1.67;;;1.00;;
23390;SDS011;11868;45.606;5.302;2024-03-02T03:10:16;2.10;;;1.30;;
23390;SDS011;11868;45.606;5.302;2024-03-02T03:12:42;1.67;;;1.40;;
23390;SDS011;11868;45.606;5.302;2024-03-02T03:15:08;3.10;;;1.40;;
23390;SDS011;11868;45.606;5.302;2024-03-02T03:17:34;2.33;;;1.00;;
23390;SDS011;11868;45.606;5.302;2024-03-02T03:20:00;1.60;;;1.00;;
23390;SDS011;11868;45.606;5.302;2024-03-02T03:22:26;2.65;;;1.17;;
23390;SDS011;11868;45.606;5.302;2024-03-02T03:24:52;5.50;;;2.45;;
23390;SDS011;11868;45.606;5.302;2024-03-02T03:27:17;2.00;;;1.27;;
23390;SDS011;11868;45.606;5.302;2024-03-02T03:29:43;2.33;;;1.13;;
23390;SDS011;11868;45.606;5.302;2024-03-02T03:32:08;1.65;;;0.95;;
23390;SDS011;11868;45.606;5.302;2024-03-02T03:34:34;1.23;;;0.93;;
23390;SDS011;11868;45.606;5.302;2024-03-02T03:36:59;1.75;;;1.00;;
23390;SDS011;11868;45.606;5.302;2024-03-02T03:39:25;1.50;;;0.90;;
23390;SDS011;11868;45.606;5.302;2024-03-02T03:41:50;1.52;;;1.00;;
23390;SDS011;11868;45.606;5.302;2024-03-02T03:44:15;1.15;;;1.00;;
23390;SDS011;11868;45.606;5.302;2024-03-02T03:46:41;1.40;;;1.00;;
23390;SDS011;11868;45.606;5.302;2024-03-02T03:49:06;1.20;;;1.08;;
23390;SDS011;11868;45.606;5.302;2024-03-02T03:51:32;1.20;;;0.80;;
23390;SDS011;11868;45.606;5.302;2024-03-02T03:53:58;3.17;;;1.52;;
23390;SDS011;11868;45.606;5.302;2024-03-02T03:56:24;1.63;;;1.35;;
23390;SDS011;11868;45.606;5.302;2024-03-02T03:58:49;2.72;;;2.17;;
23390;SDS011;11868;45.606;5.302;2024-03-02T04:01:14;1.70;;;1.60;;
23390;SDS011;11868;45.606;5.302;2024-03-02T04:03:40;2.15;;;1.20;;
23390;SDS011;11868;45.606;5.302;2024-03-02T04:06:05;2.60;;;1.10;;
23390;SDS011;11868;45.606;5.302;2024-03-02T04:08:30;2.78;;;1.25;;
23390;SDS011;11868;45.606;5.302;2024-03-02T04:10:56;1.20;;;0.82;;
23390;SDS011;11868;45.606;5.302;2024-03-02T04:13:21;3.58;;;1.20;;
23390;SDS011;11868;45.606;5.302;2024-03-02T04:15:46;3.47;;;1.35;;
23390;SDS011;11868;45.606;5.302;2024-03-02T04:18:12;2.25;;;1.10;;
23390;SDS011;11868;45.606;5.302;2024-03-02T04:20:37;0.95;;;0.85;;
23390;SDS011;11868;45.606;5.302;2024-03-02T04:23:02;2.05;;;1.10;;
23390;SDS011;11868;45.606;5.302;2024-03-02T04:25:28;1.23;;;0.90;;
23390;SDS011;11868;45.606;5.302;2024-03-02T04:27:53;1.02;;;0.93;;
23390;SDS011;11868;45.606;5.302;2024-03-02T04:30:18;1.60;;;1.10;;
23390;SDS011;11868;45.606;5.302;2024-03-02T04:32:44;1.55;;;1.20;;
23390;SDS011;11868;45.606;5.302;2024-03-02T04:35:11;1.70;;;1.00;;
23390;SDS011;11868;45.606;5.302;2024-03-02T04:37:37;0.73;;;0.70;;
23390;SDS011;11868;45.606;5.302;2024-03-02T04:40:03;1.92;;;1.05;;
23390;SDS011;11868;45.606;5.302;2024-03-02T04:42:29;1.27;;;1.00;;
23390;SDS011;11868;45.606;5.302;2024-03-02T04:44:54;1.60;;;1.00;;
23390;SDS011;11868;45.606;5.302;2024-03-02T04:47:19;2.17;;;1.00;;
23390;SDS011;11868;45.606;5.302;2024-03-02T04:49:45;1.38;;;0.90;;
23390;SDS011;11868;45.606;5.302;2024-03-02T04:52:10;4.82;;;1.10;;
23390;SDS011;11868;45.606;5.302;2024-03-02T04:54:36;1.60;;;0.90;;
23390;SDS011;11868;45.606;5.302;2024-03-02T04:57:21;1.48;;;0.93;;
23390;SDS011;11868;45.606;5.302;2024-03-02T04:59:46;1.70;;;1.00;;
23390;SDS011;11868;45.606;5.302;2024-03-02T05:02:11;1.27;;;1.00;;
23390;SDS011;11868;45.606;5.302;2024-03-02T05:04:39;1.92;;;1.00;;
23390;SDS011;11868;45.606;5.302;2024-03-02T05:07:04;1.70;;;1.05;;
23390;SDS011;11868;45.606;5.302;2024-03-02T05:09:30;1.08;;;0.90;;
23390;SDS011;11868;45.606;5.302;2024-03-02T05:11:55;1.25;;;0.95;;
23390;SDS011;11868;45.606;5.302;2024-03-02T05:14:39;1.88;;;1.13;;
23390;SDS011;11868;45.606;5.302;2024-03-02T05:17:04;1.60;;;0.80;;
23390;SDS011;11868;45.606;5.302;2024-03-02T05:19:30;1.05;;;0.80;;
23390;SDS011;11868;45.606;5.302;2024-03-02T05:21:55;2.33;;;1.10;;
23390;SDS011;11868;45.606;5.302;2024-03-02T05:24:20;2.03;;;1.02;;
23390;SDS011;11868;45.606;5.302;2024-03-02T05:26:46;2.88;;;1.10;;
23390;SDS011;11868;45.606;5.302;2024-03-02T05:29:11;1.75;;;0.95;;
23390;SDS011;11868;45.606;5.302;2024-03-02T05:31:36;1.02;;;0.90;;
23390;SDS011;11868;45.606;5.302;2024-03-02T05:34:02;1.63;;;0.95;;
23390;SDS011;11868;45.606;5.302;2024-03-02T05:36:27;2.05;;;1.10;;
23390;SDS011;11868;45.606;5.302;2024-03-02T05:38:53;0.93;;;0.80;;
23390;SDS011;11868;45.606;5.302;2024-03-02T05:41:18;1.50;;;0.90;;
23390;SDS011;11868;45.606;5.302;2024-03-02T05:43:43;2.42;;;0.98;;
23390;SDS011;11868;45.606;5.302;2024-03-02T05:46:09;0.80;;;0.80;;
23390;SDS011;11868;45.606;5.302;2024-03-02T05:48:34;2.33;;;1.17;;
23390;SDS011;11868;45.606;5.302;2024-03-02T05:50:59;2.05;;;1.10;;
23390;SDS011;11868;45.606;5.302;2024-03-02T05:53:25;3.17;;;1.10;;
23390;SDS011;11868;45.606;5.302;2024-03-02T05:55:50;1.42;;;1.00;;
23390;SDS011;11868;45.606;5.302;2024-03-02T05:58:20;1.73;;;0.80;;
23390;SDS011;11868;45.606;5.302;2024-03-02T06:00:56;2.40;;;1.05;;
23390;SDS011;11868;45.606;5.302;2024-03-02T06:03:22;1.38;;;0.90;;
23390;SDS011;11868;45.606;5.302;2024-03-02T06:05:47;2.38;;;1.10;;
23390;SDS011;11868;45.606;5.302;2024-03-02T06:08:14;3.75;;;1.00;;
23390;SDS011;11868;45.606;5.302;2024-03-02T06:10:39;1.17;;;1.00;;
23390;SDS011;11868;45.606;5.302;2024-03-02T06:13:05;3.50;;;1.10;;
23390;SDS011;11868;45.606;5.302;2024-03-02T06:15:30;5.00;;;2.72;;
23390;SDS011;11868;45.606;5.302;2024-03-02T06:17:56;4.72;;;2.30;;
23390;SDS011;11868;45.606;5.302;2024-03-02T06:20:21;3.95;;;1.90;;
23390;SDS011;11868;45.606;5.302;2024-03-02T06:22:46;2.67;;;1.23;;
23390;SDS011;11868;45.606;5.302;2024-03-02T06:25:12;5.22;;;2.13;;
23390;SDS011;11868;45.606;5.302;2024-03-02T06:27:38;3.60;;;2.38;;
23390;SDS011;11868;45.606;5.302;2024-03-02T06:30:03;4.65;;;1.90;;
23390;SDS011;11868;45.606;5.302;2024-03-02T06:32:29;7.70;;;3.28;;
23390;SDS011;11868;45.606;5.302;2024-03-02T06:34:55;7.63;;;3.75;;
23390;SDS011;11868;45.606;5.302;2024-03-02T06:37:20;3.88;;;2.40;;
23390;SDS011;11868;45.606;5.302;2024-03-02T06:39:45;5.15;;;2.60;;
23390;SDS011;11868;45.606;5.302;2024-03-02T06:42:11;7.93;;;4.05;;
23390;SDS011;11868;45.606;5.302;2024-03-02T06:44:36;6.30;;;3.83;;
23390;SDS011;11868;45.606;5.302;2024-03-02T06:47:01;7.00;;;3.22;;
23390;SDS011;11868;45.606;5.302;2024-03-02T06:49:26;7.03;;;3.70;;
23390;SDS011;11868;45.606;5.302;2024-03-02T06:51:52;7.40;;;3.50;;
23390;SDS011;11868;45.606;5.302;2024-03-02T06:54:17;3.13;;;2.20;;
23390;SDS011;11868;45.606;5.302;2024-03-02T06:56:42;5.85;;;3.10;;
23390;SDS011;11868;45.606;5.302;2024-03-02T06:59:08;5.43;;;3.08;;
23390;SDS011;11868;45.606;5.302;2024-03-02T07:01:33;11.45;;;3.08;;
23390;SDS011;11868;45.606;5.302;2024-03-02T07:03:59;4.28;;;1.95;;
23390;SDS011;11868;45.606;5.302;2024-03-02T07:06:24;6.43;;;2.92;;
23390;SDS011;11868;45.606;5.302;2024-03-02T07:08:50;4.90;;;2.80;;
23390;SDS011;11868;45.606;5.302;2024-03-02T07:11:15;4.75;;;2.58;;
23390;SDS011;11868;45.606;5.302;2024-03-02T07:13:41;12.57;;;6.07;;
23390;SDS011;11868;45.606;5.302;2024-03-02T07:16:06;7.82;;;4.18;;
23390;SDS011;11868;45.606;5.302;2024-03-02T07:18:52;7.55;;;4.07;;
23390;SDS011;11868;45.606;5.302;2024-03-02T07:21:20;6.63;;;3.30;;
23390;SDS011;11868;45.606;5.302;2024-03-02T07:23:47;2.45;;;1.55;;
23390;SDS011;11868;45.606;5.302;2024-03-02T07:26:12;5.05;;;3.03;;
23390;SDS011;11868;45.606;5.302;2024-03-02T07:28:38;6.85;;;3.80;;
23390;SDS011;11868;45.606;5.302;2024-03-02T07:31:04;6.80;;;4.43;;
23390;SDS011;11868;45.606;5.302;2024-03-02T07:33:30;9.35;;;4.75;;
23390;SDS011;11868;45.606;5.302;2024-03-02T07:35:56;6.45;;;4.47;;
23390;SDS011;11868;45.606;5.302;2024-03-02T07:38:22;10.73;;;6.93;;
23390;SDS011;11868;45.606;5.302;2024-03-02T07:40:48;9.55;;;5.95;;
23390;SDS011;11868;45.606;5.302;2024-03-02T07:43:17;7.88;;;5.15;;
23390;SDS011;11868;45.606;5.302;2024-03-02T07:45:42;16.05;;;8.45;;
23390;SDS011;11868;45.606;5.302;2024-03-02T07:48:08;22.40;;;14.38;;
23390;SDS011;11868;45.606;5.302;2024-03-02T07:50:34;9.93;;;4.85;;
23390;SDS011;11868;45.606;5.302;2024-03-02T07:53:01;8.70;;;5.35;;
23390;SDS011;11868;45.606;5.302;2024-03-02T07:55:26;6.18;;;2.20;;
23390;SDS011;11868;45.606;5.302;2024-03-02T07:57:52;8.15;;;3.50;;
23390;SDS011;11868;45.606;5.302;2024-03-02T08:00:17;7.00;;;2.22;;
23390;SDS011;11868;45.606;5.302;2024-03-02T08:02:43;8.23;;;3.65;;
23390;SDS011;11868;45.606;5.302;2024-03-02T08:05:08;13.70;;;6.57;;
23390;SDS011;11868;45.606;5.302;2024-03-02T08:07:34;8.23;;;5.93;;
23390;SDS011;11868;45.606;5.302;2024-03-02T08:09:59;6.90;;;4.10;;
23390;SDS011;11868;45.606;5.302;2024-03-02T08:12:25;8.93;;;3.75;;
23390;SDS011;11868;45.606;5.302;2024-03-02T08:14:50;5.32;;;2.30;;
23390;SDS011;11868;45.606;5.302;2024-03-02T08:17:16;5.18;;;2.13;;
23390;SDS011;11868;45.606;5.302;2024-03-02T08:19:41;7.75;;;1.90;;
23390;SDS011;11868;45.606;5.302;2024-03-02T08:22:07;6.88;;;2.22;;
23390;SDS011;11868;45.606;5.302;2024-03-02T08:24:32;5.90;;;2.10;;
23390;SDS011;11868;45.606;5.302;2024-03-02T08:26:59;4.70;;;3.13;;
23390;SDS011;11868;45.606;5.302;2024-03-02T08:29:25;3.22;;;1.88;;
23390;SDS011;11868;45.606;5.302;2024-03-02T08:31:50;6.32;;;2.90;;
23390;SDS011;11868;45.606;5.302;2024-03-02T08:34:15;5.65;;;2.92;;
23390;SDS011;11868;45.606;5.302;2024-03-02T08:36:41;9.05;;;2.17;;
23390;SDS011;11868;45.606;5.302;2024-03-02T08:39:07;6.28;;;1.88;;
23390;SDS011;11868;45.606;5.302;2024-03-02T08:41:40;4.13;;;1.80;;
23390;SDS011;11868;45.606;5.302;2024-03-02T08:44:14;4.72;;;1.52;;
23390;SDS011;11868;45.606;5.302;2024-03-02T08:46:40;5.32;;;1.65;;
23390;SDS011;11868;45.606;5.302;2024-03-02T08:49:05;7.53;;;1.60;;
23390;SDS011;11868;45.606;5.302;2024-03-02T08:51:31;4.35;;;1.55;;
23390;SDS011;11868;45.606;5.302;2024-03-02T08:53:57;8.00;;;2.15;;
23390;SDS011;11868;45.606;5.302;2024-03-02T08:56:23;3.30;;;1.95;;
23390;SDS011;11868;45.606;5.302;2024-03-02T08:58:49;3.80;;;1.60;;
23390;SDS011;11868;45.606;5.302;2024-03-02T09:01:15;6.88;;;1.77;;
23390;SDS011;11868;45.606;5.302;2024-03-02T09:03:41;6.10;;;2.08;;
23390;SDS011;11868;45.606;5.302;2024-03-02T09:06:09;6.55;;;1.83;;
23390;SDS011;11868;45.606;5.302;2024-03-02T09:08:34;3.63;;;1.55;;
23390;SDS011;11868;45.606;5.302;2024-03-02T09:11:01;3.72;;;1.45;;
23390;SDS011;11868;45.606;5.302;2024-03-02T09:13:27;4.45;;;1.58;;
23390;SDS011;11868;45.606;5.302;2024-03-02T09:15:53;2.50;;;1.48;;
23390;SDS011;11868;45.606;5.302;2024-03-02T09:18:18;7.75;;;3.03;;
23390;SDS011;11868;45.606;5.302;2024-03-02T09:20:43;5.72;;;2.17;;
23390;SDS011;11868;45.606;5.302;2024-03-02T09:23:09;5.18;;;1.63;;
23390;SDS011;11868;45.606;5.302;2024-03-02T09:25:34;5.00;;;2.35;;
23390;SDS011;11868;45.606;5.302;2024-03-02T09:27:59;8.32;;;1.50;;
23390;SDS011;11868;45.606;5.302;2024-03-02T09:30:25;4.22;;;1.60;;
23390;SDS011;11868;45.606;5.302;2024-03-02T09:32:50;4.50;;;1.65;;
23390;SDS011;11868;45.606;5.302;2024-03-02T09:35:15;4.40;;;1.65;;
23390;SDS011;11868;45.606;5.302;2024-03-02T09:37:41;3.70;;;1.30;;
23390;SDS011;11868;45.606;5.302;2024-03-02T09:40:06;4.45;;;1.25;;
23390;SDS011;11868;45.606;5.302;2024-03-02T09:42:32;5.15;;;1.55;;
23390;SDS011;11868;45.606;5.302;2024-03-02T09:44:58;5.40;;;1.70;;
23390;SDS011;11868;45.606;5.302;2024-03-02T09:47:24;6.43;;;1.67;;
23390;SDS011;11868;45.606;5.302;2024-03-02T09:49:49;3.00;;;1.30;;
23390;SDS011;11868;45.606;5.302;2024-03-02T09:52:15;4.88;;;1.85;;
23390;SDS011;11868;45.606;5.302;2024-03-02T09:54:41;4.80;;;1.80;;
23390;SDS011;11868;45.606;5.302;2024-03-02T09:57:06;3.47;;;2.10;;
23390;SDS011;11868;45.606;5.302;2024-03-02T09:59:32;4.50;;;1.80;;
23390;SDS011;11868;45.606;5.302;2024-03-02T10:04:25;5.05;;;1.58;;
23390;SDS011;11868;45.606;5.302;2024-03-02T10:06:50;2.78;;;1.63;;
23390;SDS011;11868;45.606;5.302;2024-03-02T10:09:26;5.10;;;1.75;;
23390;SDS011;11868;45.606;5.302;2024-03-02T10:11:54;5.00;;;1.63;;
23390;SDS011;11868;45.606;5.302;2024-03-02T10:14:29;3.80;;;1.88;;
23390;SDS011;11868;45.606;5.302;2024-03-02T10:16:54;4.97;;;1.80;;
23390;SDS011;11868;45.606;5.302;2024-03-02T10:19:27;4.50;;;1.73;;
23390;SDS011;11868;45.606;5.302;2024-03-02T10:21:57;7.10;;;2.58;;
23390;SDS011;11868;45.606;5.302;2024-03-02T10:24:23;3.08;;;1.50;;
23390;SDS011;11868;45.606;5.302;2024-03-02T10:26:49;4.38;;;1.70;;
23390;SDS011;11868;45.606;5.302;2024-03-02T10:29:15;4.13;;;1.40;;
23390;SDS011;11868;45.606;5.302;2024-03-02T10:31:41;5.55;;;1.77;;
23390;SDS011;11868;45.606;5.302;2024-03-02T10:34:09;2.42;;;1.30;;
23390;SDS011;11868;45.606;5.302;2024-03-02T10:36:35;5.25;;;1.50;;
23390;SDS011;11868;45.606;5.302;2024-03-02T10:39:05;5.25;;;2.00;;
23390;SDS011;11868;45.606;5.302;2024-03-02T10:41:34;2.50;;;1.50;;
23390;SDS011;11868;45.606;5.302;2024-03-02T10:44:04;4.35;;;1.63;;
23390;SDS011;11868;45.606;5.302;2024-03-02T10:46:31;5.07;;;1.60;;
23390;SDS011;11868;45.606;5.302;2024-03-02T10:48:58;4.40;;;1.60;;
23390;SDS011;11868;45.606;5.302;2024-03-02T10:51:27;3.03;;;1.65;;
23390;SDS011;11868;45.606;5.302;2024-03-02T10:53:55;3.13;;;1.40;;
23390;SDS011;11868;45.606;5.302;2024-03-02T10:56:21;3.20;;;1.40;;
23390;SDS011;11868;45.606;5.302;2024-03-02T10:58:55;2.95;;;1.30;;
23390;SDS011;11868;45.606;5.302;2024-03-02T11:01:27;4.38;;;2.17;;
23390;SDS011;11868;45.606;5.302;2024-03-02T11:03:54;3.85;;;1.50;;
23390;SDS011;11868;45.606;5.302;2024-03-02T11:06:19;2.53;;;1.40;;
23390;SDS011;11868;45.606;5.302;2024-03-02T11:08:47;4.25;;;1.73;;
23390;SDS011;11868;45.606;5.302;2024-03-02T11:11:15;2.97;;;1.40;;
23390;SDS011;11868;45.606;5.302;2024-03-02T11:13:42;5.75;;;1.38;;
23390;SDS011;11868;45.606;5.302;2024-03-02T11:16:15;3.67;;;1.63;;
23390;SDS011;11868;45.606;5.302;2024-03-02T11:18:45;5.20;;;1.90;;
23390;SDS011;11868;45.606;5.302;2024-03-02T11:21:10;5.65;;;3.33;;
23390;SDS011;11868;45.606;5.302;2024-03-02T11:23:36;2.15;;;1.25;;
23390;SDS011;11868;45.606;5.302;2024-03-02T11:26:18;3.28;;;1.52;;
23390;SDS011;11868;45.606;5.302;2024-03-02T11:28:47;4.97;;;1.50;;
23390;SDS011;11868;45.606;5.302;2024-03-02T11:31:12;8.00;;;4.07;;
23390;SDS011;11868;45.606;5.302;2024-03-02T11:33:38;7.43;;;3.90;;
23390;SDS011;11868;45.606;5.302;2024-03-02T11:36:03;4.32;;;2.63;;
23390;SDS011;11868;45.606;5.302;2024-03-02T11:38:32;9.17;;;4.43;;
23390;SDS011;11868;45.606;5.302;2024-03-02T11:40:59;4.47;;;2.10;;
23390;SDS011;11868;45.606;5.302;2024-03-02T11:43:25;4.78;;;2.60;;
23390;SDS011;11868;45.606;5.302;2024-03-02T11:45:56;3.70;;;1.50;;
23390;SDS011;11868;45.606;5.302;2024-03-02T11:48:25;3.58;;;1.70;;
23390;SDS011;11868;45.606;5.302;2024-03-02T11:50:51;4.88;;;2.58;;
23390;SDS011;11868;45.606;5.302;2024-03-02T11:53:17;3.63;;;1.60;;
23390;SDS011;11868;45.606;5.302;2024-03-02T11:55:43;2.17;;;1.30;;
23390;SDS011;11868;45.606;5.302;2024-03-02T11:58:11;5.82;;;1.83;;
23390;SDS011;11868;45.606;5.302;2024-03-02T12:00:37;5.25;;;1.60;;
23390;SDS011;11868;45.606;5.302;2024-03-02T12:03:06;4.28;;;1.67;;
23390;SDS011;11868;45.606;5.302;2024-03-02T12:05:32;6.88;;;1.50;;
23390;SDS011;11868;45.606;5.302;2024-03-02T12:07:58;2.95;;;1.45;;
23390;SDS011;11868;45.606;5.302;2024-03-02T12:10:33;3.03;;;1.30;;
23390;SDS011;11868;45.606;5.302;2024-03-02T12:12:59;2.47;;;1.25;;
23390;SDS011;11868;45.606;5.302;2024-03-02T12:15:29;2.88;;;1.40;;
23390;SDS011;11868;45.606;5.302;2024-03-02T12:17:56;4.68;;;1.67;;
23390;SDS011;11868;45.606;5.302;2024-03-02T12:20:22;3.28;;;1.45;;
23390;SDS011;11868;45.606;5.302;2024-03-02T12:22:55;4.53;;;1.48;;
23390;SDS011;11868;45.606;5.302;2024-03-02T12:25:23;11.48;;;3.72;;
23390;SDS011;11868;45.606;5.302;2024-03-02T12:27:50;3.13;;;1.50;;
23390;SDS011;11868;45.606;5.302;2024-03-02T12:30:17;5.88;;;1.60;;
23390;SDS011;11868;45.606;5.302;2024-03-02T12:32:44;3.55;;;1.52;;
23390;SDS011;11868;45.606;5.302;2024-03-02T12:35:12;5.32;;;1.70;;
23390;SDS011;11868;45.606;5.302;2024-03-02T12:40:12;2.50;;;1.40;;
23390;SDS011;11868;45.606;5.302;2024-03-02T12:42:39;3.80;;;1.80;;
23390;SDS011;11868;45.606;5.302;2024-03-02T12:45:05;4.22;;;1.70;;
23390;SDS011;11868;45.606;5.302;2024-03-02T12:47:31;4.55;;;1.77;;
23390;SDS011;11868;45.606;5.302;2024-03-02T12:49:57;4.05;;;1.88;;
23390;SDS011;11868;45.606;5.302;2024-03-02T12:52:23;3.28;;;1.60;;
23390;SDS011;11868;45.606;5.302;2024-03-02T12:54:49;4.57;;;2.40;;
23390;SDS011;11868;45.606;5.302;2024-03-02T12:57:18;4.05;;;1.38;;
23390;SDS011;11868;45.606;5.302;2024-03-02T12:59:46;6.53;;;4.25;;
23390;SDS011;11868;45.606;5.302;2024-03-02T13:02:18;9.15;;;6.32;;
23390;SDS011;11868;45.606;5.302;2024-03-02T13:04:44;2.33;;;1.48;;
23390;SDS011;11868;45.606;5.302;2024-03-02T13:07:10;2.63;;;1.60;;
23390;SDS011;11868;45.606;5.302;2024-03-02T13:09:37;6.07;;;2.25;;
23390;SDS011;11868;45.606;5.302;2024-03-02T13:12:02;13.27;;;10.18;;
23390;SDS011;11868;45.606;5.302;2024-03-02T13:14:31;9.95;;;4.22;;
23390;SDS011;11868;45.606;5.302;2024-03-02T13:16:57;9.02;;;7.95;;
23390;SDS011;11868;45.606;5.302;2024-03-02T13:19:23;3.08;;;2.30;;
23390;SDS011;11868;45.606;5.302;2024-03-02T13:21:48;11.68;;;7.88;;
23390;SDS011;11868;45.606;5.302;2024-03-02T13:24:15;6.32;;;3.10;;
23390;SDS011;11868;45.606;5.302;2024-03-02T13:26:40;4.45;;;3.55;;
23390;SDS011;11868;45.606;5.302;2024-03-02T13:29:06;2.53;;;1.20;;
23390;SDS011;11868;45.606;5.302;2024-03-02T13:31:32;2.33;;;1.10;;
23390;SDS011;11868;45.606;5.302;2024-03-02T13:33:58;2.58;;;1.23;;
23390;SDS011;11868;45.606;5.302;2024-03-02T13:36:23;3.00;;;1.42;;
23390;SDS011;11868;45.606;5.302;2024-03-02T13:38:49;3.80;;;1.25;;
23390;SDS011;11868;45.606;5.302;2024-03-02T13:41:14;2.58;;;1.52;;
23390;SDS011;11868;45.606;5.302;2024-03-02T13:43:39;2.13;;;1.20;;
23390;SDS011;11868;45.606;5.302;2024-03-02T13:46:05;2.00;;;1.17;;
23390;SDS011;11868;45.606;5.302;2024-03-02T13:48:31;2.85;;;1.42;;
23390;SDS011;11868;45.606;5.302;2024-03-02T13:50:57;3.72;;;1.33;;
23390;SDS011;11868;45.606;5.302;2024-03-02T13:53:22;3.05;;;1.70;;
23390;SDS011;11868;45.606;5.302;2024-03-02T13:55:48;2.95;;;1.23;;
23390;SDS011;11868;45.606;5.302;2024-03-02T13:58:13;1.42;;;1.20;;
23390;SDS011;11868;45.606;5.302;2024-03-02T14:00:39;2.38;;;1.50;;
23390;SDS011;11868;45.606;5.302;2024-03-02T14:03:07;5.57;;;1.85;;
23390;SDS011;11868;45.606;5.302;2024-03-02T14:05:33;4.30;;;1.50;;
23390;SDS011;11868;45.606;5.302;2024-03-02T14:07:58;2.30;;;1.13;;
23390;SDS011;11868;45.606;5.302;2024-03-02T14:10:25;3.42;;;1.20;;
23390;SDS011;11868;45.606;5.302;2024-03-02T14:12:51;2.13;;;1.33;;
23390;SDS011;11868;45.606;5.302;2024-03-02T14:15:16;6.18;;;2.00;;
23390;SDS011;11868;45.606;5.302;2024-03-02T14:17:41;3.58;;;1.40;;
23390;SDS011;11868;45.606;5.302;2024-03-02T14:20:07;12.35;;;2.25;;
23390;SDS011;11868;45.606;5.302;2024-03-02T14:22:35;18.60;;;2.53;;
23390;SDS011;11868;45.606;5.302;2024-03-02T14:25:02;14.77;;;2.90;;
23390;SDS011;11868;45.606;5.302;2024-03-02T14:27:28;16.85;;;2.35;;
23390;SDS011;11868;45.606;5.302;2024-03-02T14:29:53;15.43;;;2.35;;
23390;SDS011;11868;45.606;5.302;2024-03-02T14:32:18;32.55;;;3.80;;
23390;SDS011;11868;45.606;5.302;2024-03-02T14:34:44;13.98;;;1.98;;
23390;SDS011;11868;45.606;5.302;2024-03-02T14:37:11;7.70;;;2.00;;
23390;SDS011;11868;45.606;5.302;2024-03-02T14:39:37;14.20;;;1.88;;
23390;SDS011;11868;45.606;5.302;2024-03-02T14:42:02;17.08;;;1.92;;
23390;SDS011;11868;45.606;5.302;2024-03-02T14:44:28;6.80;;;1.98;;
23390;SDS011;11868;45.606;5.302;2024-03-02T14:46:53;16.15;;;1.90;;
23390;SDS011;11868;45.606;5.302;2024-03-02T14:49:18;12.15;;;1.58;;
23390;SDS011;11868;45.606;5.302;2024-03-02T14:51:44;7.78;;;1.40;;